createdAt,value
2022-11-18T00:01:22.188Z,8.00
2022-11-18T00:03:50.389Z,8.00
2022-11-18T00:06:23.743Z,8.00
2022-11-18T00:08:52.304Z,8.00
2022-11-18T00:11:44.026Z,7.90
2022-11-18T00:14:23.529Z,7.80
2022-11-18T00:17:03.291Z,7.80
2022-11-18T00:19:37.128Z,7.80
2022-11-18T00:22:06.447Z,7.80
2022-11-18T00:24:34.035Z,7.70
2022-11-18T00:27:01.778Z,7.60
2022-11-18T00:29:29.121Z,7.60
2022-11-18T00:31:57.567Z,7.60
2022-11-18T00:34:25.751Z,7.60
2022-11-18T00:36:53.048Z,7.70
2022-11-18T00:39:21.402Z,7.60
2022-11-18T00:42:07.628Z,7.60
2022-11-18T00:44:34.999Z,7.60
2022-11-18T00:47:02.045Z,7.60
2022-11-18T00:49:29.472Z,7.60
2022-11-18T00:51:56.700Z,7.60
2022-11-18T00:54:23.773Z,7.60
2022-11-18T00:56:50.889Z,7.70
2022-11-18T00:59:18.232Z,7.70
2022-11-18T01:01:45.729Z,7.60
2022-11-18T01:04:15.732Z,7.70
2022-11-18T01:06:43.155Z,7.70
2022-11-18T01:09:10.168Z,7.70
2022-11-18T01:11:55.906Z,7.70
2022-11-18T01:14:25.613Z,7.80
2022-11-18T01:16:57.258Z,7.80
2022-11-18T01:19:25.030Z,7.80
2022-11-18T01:21:52.433Z,7.80
2022-11-18T01:24:19.627Z,7.80
2022-11-18T01:26:46.646Z,7.80
2022-11-18T01:29:13.671Z,7.90
2022-11-18T01:31:55.611Z,7.90
2022-11-18T01:34:29.469Z,7.90
2022-11-18T01:36:58.145Z,7.90
2022-11-18T01:39:25.954Z,8.00
2022-11-18T01:41:53.306Z,8.00
2022-11-18T01:44:57.405Z,8.10
2022-11-18T01:47:35.298Z,8.10
2022-11-18T01:50:02.605Z,8.20
2022-11-18T01:52:30.230Z,8.20
2022-11-18T01:55:05.703Z,8.20
2022-11-18T01:57:33.272Z,8.20
2022-11-18T02:00:05.741Z,8.10
2022-11-18T02:02:38.268Z,8.20
2022-11-18T02:05:08.541Z,8.20
2022-11-18T02:07:40.701Z,8.20
2022-11-18T02:10:10.017Z,8.20
2022-11-18T02:12:38.380Z,8.20
2022-11-18T02:15:06.297Z,8.30
2022-11-18T02:18:20.300Z,8.20
2022-11-18T02:20:51.400Z,8.10
2022-11-18T02:23:30.523Z,8.20
2022-11-18T02:26:05.186Z,8.20
2022-11-18T02:29:58.961Z,8.20
2022-11-18T02:32:33.842Z,8.30
2022-11-18T02:35:19.427Z,8.30
2022-11-18T02:38:07.542Z,8.20
2022-11-18T02:40:49.822Z,8.30
2022-11-18T02:43:33.361Z,8.20
2022-11-18T02:46:10.453Z,8.20
2022-11-18T02:48:45.308Z,8.20
2022-11-18T02:51:15.317Z,8.20
2022-11-18T02:53:43.644Z,8.20
2022-11-18T02:56:11.149Z,8.20
2022-11-18T02:58:38.388Z,8.30
2022-11-18T03:01:05.637Z,8.30
2022-11-18T03:03:36.189Z,8.30
2022-11-18T03:06:49.730Z,8.30
2022-11-18T03:09:29.318Z,8.30
2022-11-18T03:12:43.571Z,8.20
2022-11-18T03:15:56.666Z,8.20
2022-11-18T03:18:43.109Z,8.20
2022-11-18T03:22:22.758Z,8.20
2022-11-18T03:25:36.075Z,8.20
2022-11-18T03:28:12.163Z,8.20
2022-11-18T03:30:48.785Z,8.20
2022-11-18T03:33:23.370Z,8.20
2022-11-18T03:35:54.113Z,8.20
2022-11-18T03:38:30.433Z,8.20
2022-11-18T03:41:02.211Z,8.20
2022-11-18T03:43:38.494Z,8.30
2022-11-18T03:46:27.219Z,8.30
2022-11-18T03:48:57.246Z,8.30
2022-11-18T03:51:37.945Z,8.30
2022-11-18T03:54:29.832Z,8.30
2022-11-18T03:57:11.915Z,8.30
2022-11-18T03:59:49.846Z,8.40
2022-11-18T04:02:23.932Z,8.30
2022-11-18T04:04:53.430Z,8.30
2022-11-18T04:07:29.397Z,8.30
2022-11-18T04:10:55.577Z,8.40
2022-11-18T04:13:27.630Z,8.40
2022-11-18T04:15:55.631Z,8.30
2022-11-18T04:18:22.894Z,8.30
2022-11-18T04:20:49.980Z,8.30
2022-11-18T04:23:17.140Z,8.30
2022-11-18T04:25:44.207Z,8.30
2022-11-18T04:28:11.401Z,8.30
2022-11-18T04:30:38.434Z,8.30
2022-11-18T04:33:05.553Z,8.30
2022-11-18T04:35:32.624Z,8.30
2022-11-18T04:37:59.670Z,8.30
2022-11-18T04:40:26.718Z,8.30
2022-11-18T04:42:53.772Z,8.30
2022-11-18T04:45:21.958Z,8.30
2022-11-18T04:47:48.962Z,8.30
2022-11-18T04:50:16.297Z,8.30
2022-11-18T04:52:43.303Z,8.30
2022-11-18T04:55:10.325Z,8.30
2022-11-18T04:57:37.404Z,8.30
2022-11-18T05:00:05.604Z,8.30
2022-11-18T05:02:32.641Z,8.30
2022-11-18T05:04:59.748Z,8.30
2022-11-18T05:07:26.881Z,8.40
2022-11-18T05:09:54.002Z,8.30
2022-11-18T05:12:41.243Z,8.30
2022-11-18T05:15:08.708Z,8.30
2022-11-18T05:17:36.300Z,8.30
2022-11-18T05:20:03.681Z,8.30
2022-11-18T05:22:30.794Z,8.30
2022-11-18T05:24:57.836Z,8.30
2022-11-18T05:27:25.009Z,8.30
2022-11-18T05:29:52.438Z,8.30
2022-11-18T05:32:19.469Z,8.40
2022-11-18T05:34:46.698Z,8.40
2022-11-18T05:37:14.298Z,8.50
2022-11-18T05:39:41.396Z,8.50
2022-11-18T05:42:28.819Z,8.50
2022-11-18T05:44:58.392Z,8.40
2022-11-18T05:47:26.715Z,8.40
2022-11-18T05:49:53.774Z,8.40
2022-11-18T05:52:20.772Z,8.40
2022-11-18T05:54:51.036Z,8.40
2022-11-18T05:57:18.291Z,8.30
2022-11-18T05:59:45.312Z,8.20
2022-11-18T06:02:21.030Z,8.10
2022-11-18T06:05:00.167Z,8.00
2022-11-18T06:07:41.613Z,8.00
2022-11-18T06:10:12.985Z,7.90
2022-11-18T06:12:46.362Z,7.90
2022-11-18T06:15:21.888Z,7.80
2022-11-18T06:18:24.062Z,7.70
2022-11-18T06:20:57.233Z,7.60
2022-11-18T06:23:24.557Z,7.60
2022-11-18T06:25:51.652Z,7.50
2022-11-18T06:28:20.519Z,7.50
2022-11-18T06:30:47.737Z,7.50
2022-11-18T06:33:14.858Z,7.50
2022-11-18T06:35:43.494Z,7.40
2022-11-18T06:38:10.929Z,7.40
2022-11-18T06:40:38.318Z,7.40
2022-11-18T06:43:28.409Z,7.40
2022-11-18T06:46:22.408Z,7.40
2022-11-18T06:48:49.725Z,7.30
2022-11-18T06:51:17.029Z,7.30
2022-11-18T06:53:44.183Z,7.30
2022-11-18T06:56:15.581Z,7.20
2022-11-18T06:58:43.230Z,7.20
2022-11-18T07:01:22.716Z,7.20
2022-11-18T07:03:50.562Z,7.10
2022-11-18T07:06:23.760Z,7.20
2022-11-18T07:08:52.570Z,7.10
2022-11-18T07:11:23.004Z,7.10
2022-11-18T07:13:50.544Z,7.10
2022-11-18T07:16:23.381Z,7.00
2022-11-18T07:18:52.114Z,7.00
2022-11-18T07:21:25.878Z,7.10
2022-11-18T07:23:54.036Z,7.00
2022-11-18T07:26:22.026Z,7.00
2022-11-18T07:28:49.517Z,7.00
2022-11-18T07:31:20.033Z,7.00
2022-11-18T07:33:48.031Z,6.90
2022-11-18T07:36:23.325Z,6.90
2022-11-18T07:38:51.233Z,6.90
2022-11-18T07:41:21.338Z,6.90
2022-11-18T07:43:50.552Z,6.90
2022-11-18T07:46:27.681Z,6.80
2022-11-18T07:48:57.921Z,6.90
2022-11-18T07:51:31.017Z,6.80
2022-11-18T07:53:58.291Z,6.80
2022-11-18T07:56:25.536Z,6.90
2022-11-18T07:58:56.537Z,6.90
2022-11-18T08:01:29.224Z,6.90
2022-11-18T08:03:57.372Z,7.00
2022-11-18T08:06:25.823Z,7.00
2022-11-18T08:08:53.349Z,7.00
2022-11-18T08:11:22.974Z,7.10
2022-11-18T08:13:52.006Z,7.20
2022-11-18T08:16:26.008Z,7.30
2022-11-18T08:18:53.758Z,7.30
2022-11-18T08:21:23.012Z,7.40
2022-11-18T08:23:56.452Z,7.40
2022-11-18T08:26:25.218Z,7.40
2022-11-18T08:28:55.689Z,7.40
2022-11-18T08:31:26.723Z,7.40
2022-11-18T08:34:05.334Z,7.40
2022-11-18T08:36:37.957Z,7.30
2022-11-18T08:39:09.153Z,7.30
2022-11-18T08:41:40.210Z,7.40
2022-11-18T08:44:08.768Z,7.40
2022-11-18T08:46:35.852Z,7.50
2022-11-18T08:49:03.849Z,7.50
2022-11-18T08:51:31.134Z,7.50
2022-11-18T08:53:58.522Z,7.60
2022-11-18T08:56:25.961Z,7.60
2022-11-18T08:58:53.572Z,7.70
2022-11-18T09:01:20.788Z,7.70
2022-11-18T09:03:48.523Z,7.60
2022-11-18T09:06:24.319Z,7.60
2022-11-18T09:08:52.316Z,7.50
2022-11-18T09:11:23.694Z,7.60
2022-11-18T09:16:43.504Z,7.70
2022-11-18T09:19:40.030Z,7.70
2022-11-18T09:21:57.611Z,7.70
2022-11-18T09:24:24.812Z,7.70
2022-11-18T09:26:53.772Z,7.60
2022-11-18T09:29:25.510Z,7.60
2022-11-18T09:31:54.506Z,7.60
2022-11-18T09:34:22.744Z,7.60
2022-11-18T09:36:50.662Z,7.70
2022-11-18T09:39:17.849Z,7.80
2022-11-18T09:42:33.499Z,7.80
2022-11-18T09:45:39.096Z,7.80
2022-11-18T09:48:42.759Z,7.70
2022-11-18T09:51:11.996Z,7.70
2022-11-18T09:53:43.560Z,7.60
2022-11-18T09:56:17.297Z,7.70
2022-11-18T09:58:45.204Z,7.80
2022-11-18T10:01:18.635Z,7.90
2022-11-18T10:03:45.901Z,8.00
2022-11-18T10:06:25.401Z,8.20
2022-11-18T10:09:22.706Z,8.30
2022-11-18T10:12:19.265Z,8.20
2022-11-18T10:15:12.011Z,8.30
2022-11-18T10:17:41.886Z,8.40
2022-11-18T10:20:29.915Z,8.50
2022-11-18T10:23:03.837Z,8.50
2022-11-18T10:25:31.143Z,8.50
2022-11-18T10:28:15.902Z,8.40
2022-11-18T10:30:43.178Z,8.40
2022-11-18T10:33:27.922Z,8.30
2022-11-18T10:36:16.911Z,8.30
2022-11-18T10:38:49.700Z,8.20
2022-11-18T10:41:20.792Z,8.20
2022-11-18T10:43:52.612Z,8.20
2022-11-18T10:46:35.346Z,8.30
2022-11-18T10:49:11.280Z,8.30
2022-11-18T10:51:42.263Z,8.20
2022-11-18T10:54:22.993Z,8.20
2022-11-18T10:57:21.459Z,8.10
2022-11-18T10:59:58.291Z,8.10
2022-11-18T11:02:41.262Z,8.10
2022-11-18T11:05:24.488Z,7.90
2022-11-18T11:08:35.737Z,7.90
2022-11-18T11:11:04.432Z,7.90
2022-11-18T11:13:32.881Z,7.80
2022-11-18T11:16:03.930Z,7.90
2022-11-18T11:18:43.914Z,8.00
2022-11-18T11:21:20.124Z,8.10
2022-11-18T11:23:47.327Z,8.10
2022-11-18T11:30:00.148Z,8.10
2022-11-18T11:33:01.364Z,8.20
2022-11-18T11:35:57.181Z,8.20
2022-11-18T11:39:04.888Z,8.30
2022-11-18T11:42:06.175Z,8.30
2022-11-18T11:45:07.282Z,8.30
2022-11-18T11:48:46.933Z,8.20
2022-11-18T11:51:37.706Z,8.20
2022-11-18T11:54:25.563Z,8.20
2022-11-18T11:57:14.479Z,8.30
2022-11-18T12:00:01.490Z,8.40
2022-11-18T12:02:49.028Z,8.50
2022-11-18T12:05:34.513Z,8.60
2022-11-18T12:08:08.566Z,8.70
2022-11-18T12:11:05.263Z,8.80
2022-11-18T12:13:52.316Z,8.90
2022-11-18T12:16:40.587Z,9.00
2022-11-18T12:19:17.505Z,9.10
2022-11-18T12:21:45.396Z,9.20
2022-11-18T12:24:42.580Z,9.30
2022-11-18T12:27:40.026Z,9.40
2022-11-18T12:30:19.241Z,9.40
2022-11-18T12:32:47.104Z,9.40
2022-11-18T12:35:14.147Z,9.50
2022-11-18T12:38:01.689Z,9.40
2022-11-18T12:40:52.652Z,9.50
2022-11-18T12:43:45.029Z,9.50
2022-11-18T12:46:27.087Z,9.30
2022-11-18T12:48:54.364Z,9.30
2022-11-18T12:51:21.308Z,9.20
2022-11-18T12:53:49.904Z,9.20
2022-11-18T12:56:23.801Z,9.30
2022-11-18T12:59:00.327Z,9.30
2022-11-18T13:01:35.308Z,9.10
2022-11-18T13:04:15.997Z,9.10
2022-11-18T13:06:44.918Z,9.00
2022-11-18T13:09:21.050Z,9.00
2022-11-18T13:12:00.407Z,8.90
2022-11-18T13:14:51.718Z,8.70
2022-11-18T13:18:03.175Z,8.40
2022-11-18T13:20:36.952Z,8.20
2022-11-18T13:23:33.625Z,8.10
2022-11-18T13:26:19.879Z,8.00
2022-11-18T13:29:32.423Z,8.00
2022-11-18T13:32:17.815Z,8.00
2022-11-18T13:34:58.057Z,8.00
2022-11-18T13:37:34.388Z,8.00
2022-11-18T13:40:01.580Z,8.00
2022-11-18T13:42:31.731Z,8.00
2022-11-18T13:45:01.331Z,7.90
2022-11-18T13:47:55.557Z,8.00
2022-11-18T13:50:52.859Z,8.00
2022-11-18T13:53:31.604Z,8.00
2022-11-18T13:56:23.684Z,8.10
2022-11-18T14:01:38.648Z,8.10
2022-11-18T14:04:16.038Z,8.20
2022-11-18T14:06:44.417Z,8.20
2022-11-18T14:09:14.507Z,8.20
2022-11-18T14:11:45.885Z,8.20
2022-11-18T14:14:35.790Z,8.30
2022-11-18T14:17:19.328Z,8.30
2022-11-18T14:19:49.841Z,8.30
2022-11-18T14:22:22.911Z,8.30
2022-11-18T14:25:21.125Z,8.40
2022-11-18T14:27:54.038Z,8.40
2022-11-18T14:30:39.975Z,8.50
2022-11-18T14:33:09.809Z,8.50
2022-11-18T14:35:38.053Z,8.60
2022-11-18T14:38:43.602Z,8.60
2022-11-18T14:41:12.239Z,8.60
2022-11-18T14:43:39.807Z,8.60
2022-11-18T14:46:19.014Z,8.60
2022-11-18T14:48:46.578Z,8.50
2022-11-18T14:51:16.346Z,8.50
2022-11-18T14:53:44.238Z,8.40
2022-11-18T14:56:27.815Z,8.30
2022-11-18T14:58:55.126Z,8.30
2022-11-18T15:01:30.476Z,8.10
2022-11-18T15:03:58.493Z,8.00
2022-11-18T15:06:25.673Z,7.90
2022-11-18T15:08:53.753Z,7.90
2022-11-18T15:11:21.076Z,7.90
2022-11-18T15:13:48.407Z,7.80
2022-11-18T15:16:24.106Z,7.80
2022-11-18T15:18:55.162Z,7.70
2022-11-18T15:21:23.379Z,7.70
2022-11-18T15:23:51.040Z,7.70
2022-11-18T15:26:35.696Z,7.70
2022-11-18T15:29:03.083Z,7.60
2022-11-18T15:31:30.094Z,7.70
2022-11-18T15:34:00.848Z,7.70
2022-11-18T15:36:30.636Z,7.70
2022-11-18T15:38:57.629Z,7.70
2022-11-18T15:41:28.499Z,7.60
2022-11-18T15:43:58.136Z,7.60
2022-11-18T15:46:27.333Z,7.40
2022-11-18T15:48:56.877Z,7.20
2022-11-18T15:51:26.359Z,7.10
2022-11-18T15:53:54.516Z,7.00
2022-11-18T15:56:29.798Z,6.90
2022-11-18T15:59:02.081Z,6.80
2022-11-18T16:01:35.158Z,6.70
2022-11-18T16:04:03.890Z,6.70
2022-11-18T16:06:31.268Z,6.70
2022-11-18T16:09:00.197Z,6.70
2022-11-18T16:11:47.817Z,6.70
2022-11-18T16:14:18.142Z,6.70
2022-11-18T16:16:48.018Z,6.70
2022-11-18T16:19:18.661Z,6.80
2022-11-18T16:21:49.296Z,7.00
2022-11-18T16:24:26.496Z,7.10
2022-11-18T16:26:54.370Z,7.20
2022-11-18T16:29:21.637Z,7.30
2022-11-18T16:31:52.394Z,7.30
2022-11-18T16:34:27.990Z,7.30
2022-11-18T16:36:58.132Z,7.30
2022-11-18T16:39:27.688Z,7.30
2022-11-18T16:42:03.854Z,7.30
2022-11-18T16:44:35.035Z,7.30
2022-11-18T16:47:03.289Z,7.30
2022-11-18T16:49:32.461Z,7.30
2022-11-18T16:51:59.521Z,7.20
2022-11-18T16:54:31.963Z,7.20
2022-11-18T16:57:00.041Z,7.10
2022-11-18T16:59:30.380Z,7.10
2022-11-18T17:01:59.333Z,7.20
2022-11-18T17:04:28.972Z,7.20
2022-11-18T17:06:59.831Z,7.10
2022-11-18T17:09:27.739Z,7.10
2022-11-18T17:11:55.952Z,7.20
2022-11-18T17:14:23.985Z,7.20
2022-11-18T17:16:52.481Z,7.30
2022-11-18T17:19:22.952Z,7.30
2022-11-18T17:21:55.540Z,7.30
2022-11-18T17:24:23.945Z,7.30
2022-11-18T17:26:52.345Z,7.10
2022-11-18T17:29:20.035Z,7.30
2022-11-18T17:31:47.515Z,7.20
2022-11-18T17:34:16.020Z,7.20
2022-11-18T17:36:43.576Z,7.20
2022-11-18T17:39:12.434Z,7.20
2022-11-18T17:41:58.882Z,7.10
2022-11-18T17:44:29.251Z,7.10
2022-11-18T17:46:56.585Z,7.10
2022-11-18T17:49:24.748Z,7.00
2022-11-18T17:51:51.952Z,7.00
2022-11-18T17:54:21.020Z,7.00
2022-11-18T17:56:50.019Z,7.00
2022-11-18T17:59:17.674Z,7.00
2022-11-18T18:01:46.220Z,6.90
2022-11-18T18:04:21.543Z,6.80
2022-11-18T18:06:51.638Z,6.70
2022-11-18T18:09:21.789Z,6.60
2022-11-18T18:11:52.468Z,6.50
2022-11-18T18:14:19.729Z,6.40
2022-11-18T18:16:49.825Z,6.40
2022-11-18T18:19:22.336Z,6.30
2022-11-18T18:21:50.038Z,6.30
2022-11-18T18:24:19.746Z,6.20
2022-11-18T18:26:47.363Z,6.20
2022-11-18T18:29:14.713Z,6.10
2022-11-18T18:31:41.916Z,6.10
2022-11-18T18:34:08.981Z,6.10
2022-11-18T18:36:36.092Z,6.10
2022-11-18T18:39:03.622Z,6.10
2022-11-18T18:41:32.396Z,6.10
2022-11-18T18:44:00.710Z,6.10
2022-11-18T18:46:28.830Z,6.20
2022-11-18T18:49:07.797Z,6.20
2022-11-18T18:51:43.117Z,6.30
2022-11-18T18:54:15.762Z,6.30
2022-11-18T18:56:45.988Z,6.40
2022-11-18T18:59:13.013Z,6.50
2022-11-18T19:01:40.452Z,6.70
2022-11-18T19:04:08.373Z,6.80
2022-11-18T19:06:53.218Z,6.80
2022-11-18T19:09:25.695Z,6.70
2022-11-18T19:12:16.795Z,6.80
2022-11-18T19:14:43.892Z,6.80
2022-11-18T19:17:12.692Z,6.80
2022-11-18T19:20:00.992Z,6.80
2022-11-18T19:22:33.035Z,6.70
2022-11-18T19:25:01.523Z,6.70
2022-11-18T19:27:29.902Z,6.80
2022-11-18T19:29:58.449Z,6.80
2022-11-18T19:32:25.755Z,6.80
2022-11-18T19:34:52.783Z,6.80
2022-11-18T19:37:19.813Z,6.80
2022-11-18T19:39:46.893Z,7.00
2022-11-18T19:42:14.022Z,7.00
2022-11-18T19:44:41.072Z,7.10
2022-11-18T19:47:08.142Z,7.10
2022-11-18T19:49:35.254Z,7.20
2022-11-18T19:52:02.780Z,7.20
2022-11-18T19:54:29.858Z,7.20
2022-11-18T19:56:57.507Z,7.30
2022-11-18T19:59:24.533Z,7.30
2022-11-18T20:01:51.791Z,7.40
2022-11-18T20:04:18.945Z,7.40
2022-11-18T20:06:46.053Z,7.30
2022-11-18T20:09:13.495Z,7.30
2022-11-18T20:11:40.865Z,7.30
2022-11-18T20:14:08.538Z,7.40
2022-11-18T20:16:37.738Z,7.30
2022-11-18T20:19:17.901Z,7.30
2022-11-18T20:21:45.356Z,7.30
2022-11-18T20:24:18.289Z,7.30
2022-11-18T20:26:46.300Z,7.30
2022-11-18T20:29:13.631Z,7.30
2022-11-18T20:31:41.325Z,7.30
2022-11-18T20:34:13.156Z,7.30
2022-11-18T20:36:40.904Z,7.30
2022-11-18T20:39:14.683Z,7.30
2022-11-18T20:41:42.015Z,7.30
2022-11-18T20:44:09.022Z,7.20
2022-11-18T20:46:36.053Z,7.30
2022-11-18T20:49:03.061Z,7.20
2022-11-18T20:51:30.141Z,7.30
2022-11-18T20:54:00.220Z,7.30
2022-11-18T20:56:28.629Z,7.20
2022-11-18T20:58:58.442Z,7.20
2022-11-18T21:01:29.417Z,7.20
2022-11-18T21:03:59.660Z,7.20
2022-11-18T21:06:30.504Z,7.20
2022-11-18T21:09:02.897Z,7.20
2022-11-18T21:11:31.050Z,7.10
2022-11-18T21:14:22.968Z,7.10
2022-11-18T21:16:55.575Z,7.10
2022-11-18T21:19:23.224Z,7.00
2022-11-18T21:21:52.850Z,7.00
2022-11-18T21:24:23.076Z,7.00
2022-11-18T21:26:54.394Z,7.00
2022-11-18T21:29:22.889Z,7.00
2022-11-18T21:31:50.745Z,6.90
2022-11-18T21:34:18.525Z,6.90
2022-11-18T21:36:50.387Z,6.90
2022-11-18T21:39:22.043Z,6.90
2022-11-18T21:41:54.810Z,6.80
2022-11-18T21:44:23.401Z,6.80
2022-11-18T21:46:50.656Z,6.80
2022-11-18T21:49:17.961Z,6.80
2022-11-18T21:51:45.598Z,6.80
2022-11-18T21:54:13.062Z,6.80
2022-11-18T21:56:40.105Z,6.70
2022-11-18T21:59:07.840Z,6.80
2022-11-18T22:01:35.020Z,6.80
2022-11-18T22:04:04.725Z,6.70
2022-11-18T22:06:34.289Z,6.70
2022-11-18T22:09:03.863Z,6.70
2022-11-18T22:11:31.213Z,6.70
2022-11-18T22:13:58.777Z,6.70
2022-11-18T22:16:27.230Z,6.80
2022-11-18T22:19:03.705Z,6.80
2022-11-18T22:21:33.827Z,6.80
2022-11-18T22:24:01.458Z,6.90
2022-11-18T22:26:29.460Z,6.90
2022-11-18T22:28:58.273Z,6.90
2022-11-18T22:31:27.961Z,6.90
2022-11-18T22:33:56.490Z,7.00
2022-11-18T22:36:26.760Z,7.00
2022-11-18T22:38:55.213Z,7.00
2022-11-18T22:41:44.572Z,6.90
2022-11-18T22:44:14.864Z,6.90
2022-11-18T22:46:44.222Z,6.90
2022-11-18T22:49:12.886Z,7.00
2022-11-18T22:51:40.797Z,7.00
2022-11-18T22:56:57.922Z,6.90
2022-11-18T22:59:25.635Z,7.00
2022-11-18T23:01:53.546Z,7.00
2022-11-18T23:04:20.770Z,7.00
2022-11-18T23:06:50.065Z,7.00
2022-11-18T23:09:17.749Z,7.00
2022-11-18T23:12:03.965Z,7.00
2022-11-18T23:14:31.557Z,7.00
2022-11-18T23:16:58.824Z,7.10
2022-11-18T23:19:25.956Z,7.10
2022-11-18T23:21:52.980Z,7.10
2022-11-18T23:24:20.202Z,7.10
2022-11-18T23:26:47.508Z,7.10
2022-11-18T23:29:16.422Z,7.10
2022-11-18T23:31:45.230Z,7.00
2022-11-18T23:34:15.513Z,7.00
2022-11-18T23:36:43.122Z,7.00
2022-11-18T23:39:10.599Z,7.10
2022-11-18T23:41:38.108Z,7.00
2022-11-18T23:44:05.965Z,7.10
2022-11-18T23:46:33.776Z,7.10
2022-11-18T23:49:00.998Z,7.10
2022-11-18T23:51:28.035Z,7.00
2022-11-18T23:53:56.986Z,7.00
2022-11-18T23:56:27.005Z,7.00
2022-11-18T23:58:56.650Z,7.10
